createdAt,value
2022-09-06T00:00:43.813Z,14.30
2022-09-06T00:03:10.925Z,14.29
2022-09-06T00:05:37.861Z,14.19
2022-09-06T00:08:06.055Z,14.15
2022-09-06T00:10:33.372Z,14.08
2022-09-06T00:13:02.249Z,13.99
2022-09-06T00:15:28.975Z,13.93
2022-09-06T00:17:58.633Z,13.92
2022-09-06T00:20:27.412Z,13.86
2022-09-06T00:23:02.298Z,13.81
2022-09-06T00:25:29.554Z,13.72
2022-09-06T00:28:05.294Z,13.60
2022-09-06T00:30:33.506Z,13.60
2022-09-06T00:32:59.991Z,13.53
2022-09-06T00:35:27.488Z,13.47
2022-09-06T00:37:59.329Z,13.42
2022-09-06T00:40:29.465Z,13.37
2022-09-06T00:42:58.944Z,13.31
2022-09-06T00:45:28.409Z,13.34
2022-09-06T00:47:56.110Z,13.40
2022-09-06T00:50:22.860Z,13.31
2022-09-06T00:52:51.138Z,13.29
2022-09-06T00:55:18.577Z,13.23
2022-09-06T00:57:46.532Z,13.15
2022-09-06T01:00:13.833Z,13.05
2022-09-06T01:02:40.635Z,13.01
2022-09-06T01:05:07.631Z,12.95
2022-09-06T01:07:40.980Z,12.95
2022-09-06T01:10:37.412Z,12.96
2022-09-06T01:13:18.267Z,12.92
2022-09-06T01:16:11.916Z,12.88
2022-09-06T01:19:03.493Z,12.91
2022-09-06T01:21:54.664Z,12.99
2022-09-06T01:24:26.640Z,12.98
2022-09-06T01:27:21.399Z,13.05
2022-09-06T01:29:56.309Z,13.00
2022-09-06T01:32:34.809Z,13.05
2022-09-06T01:35:50.385Z,13.06
2022-09-06T01:38:17.349Z,13.01
2022-09-06T01:40:43.810Z,13.04
2022-09-06T01:43:13.481Z,13.03
2022-09-06T01:46:02.150Z,13.05
2022-09-06T01:48:55.927Z,13.06
2022-09-06T01:51:29.506Z,13.03
2022-09-06T01:54:08.358Z,12.97
2022-09-06T01:57:00.288Z,12.97
2022-09-06T01:59:41.876Z,12.96
2022-09-06T02:02:14.566Z,12.95
2022-09-06T02:05:11.688Z,12.99
2022-09-06T02:07:40.099Z,12.92
2022-09-06T02:10:18.610Z,12.94
2022-09-06T02:12:48.242Z,12.89
2022-09-06T02:15:22.868Z,12.79
2022-09-06T02:18:02.198Z,12.73
2022-09-06T02:20:35.392Z,12.64
2022-09-06T02:23:05.221Z,12.58
2022-09-06T02:25:42.101Z,12.54
2022-09-06T02:28:09.671Z,12.47
2022-09-06T02:30:40.542Z,12.36
2022-09-06T02:33:12.589Z,12.25
2022-09-06T02:35:48.071Z,12.19
2022-09-06T02:38:15.863Z,12.16
2022-09-06T02:40:44.530Z,12.12
2022-09-06T02:43:11.116Z,12.07
2022-09-06T02:45:37.990Z,12.01
2022-09-06T02:48:07.044Z,11.95
2022-09-06T02:50:33.724Z,11.89
2022-09-06T02:53:07.426Z,11.88
2022-09-06T02:55:34.026Z,11.80
2022-09-06T02:58:00.592Z,11.73
2022-09-06T03:00:29.025Z,11.67
2022-09-06T03:02:56.236Z,11.59
2022-09-06T03:05:24.095Z,11.63
2022-09-06T03:07:51.075Z,11.53
2022-09-06T03:10:19.443Z,11.45
2022-09-06T03:12:46.668Z,11.40
2022-09-06T03:15:15.578Z,11.34
2022-09-06T03:17:43.092Z,11.27
2022-09-06T03:20:11.177Z,11.23
2022-09-06T03:22:41.584Z,11.14
2022-09-06T03:25:09.584Z,11.06
2022-09-06T03:27:36.285Z,10.99
2022-09-06T03:30:03.707Z,10.96
2022-09-06T03:32:30.298Z,10.93
2022-09-06T03:34:56.824Z,10.94
2022-09-06T03:37:23.406Z,10.93
2022-09-06T03:39:49.942Z,10.92
2022-09-06T03:42:16.761Z,10.95
2022-09-06T03:44:43.320Z,10.96
2022-09-06T03:47:10.387Z,10.98
2022-09-06T03:49:36.899Z,10.97
2022-09-06T03:52:03.531Z,10.99
2022-09-06T03:54:30.037Z,11.04
2022-09-06T03:56:57.330Z,11.02
2022-09-06T03:59:23.866Z,11.01
2022-09-06T04:01:50.381Z,11.02
2022-09-06T04:04:16.891Z,11.02
2022-09-06T04:06:43.506Z,11.02
2022-09-06T04:09:10.035Z,11.05
2022-09-06T04:11:36.576Z,11.14
2022-09-06T04:14:03.187Z,11.12
2022-09-06T04:16:29.800Z,11.12
2022-09-06T04:18:56.319Z,11.17
2022-09-06T04:21:22.970Z,11.27
2022-09-06T04:23:49.586Z,11.40
2022-09-06T04:26:16.130Z,11.55
2022-09-06T04:28:42.676Z,11.69
2022-09-06T04:31:09.222Z,11.98
2022-09-06T04:33:38.235Z,12.12
2022-09-06T04:36:08.008Z,12.26
2022-09-06T04:38:37.891Z,12.33
2022-09-06T04:41:05.912Z,12.35
2022-09-06T04:43:32.715Z,12.26
2022-09-06T04:46:07.100Z,12.16
2022-09-06T04:48:33.599Z,12.05
2022-09-06T04:51:00.084Z,12.00
2022-09-06T04:53:26.621Z,11.99
2022-09-06T04:55:53.112Z,11.99
2022-09-06T04:58:19.676Z,12.02
2022-09-06T05:00:46.304Z,12.02
2022-09-06T05:03:12.815Z,12.04
2022-09-06T05:05:39.351Z,12.02
2022-09-06T05:08:05.855Z,12.10
2022-09-06T05:10:33.566Z,12.11
2022-09-06T05:13:00.073Z,12.13
2022-09-06T05:15:26.594Z,12.14
2022-09-06T05:17:53.269Z,12.13
2022-09-06T05:20:19.872Z,12.13
2022-09-06T05:22:54.281Z,12.11
2022-09-06T05:25:21.677Z,12.10
2022-09-06T05:27:49.640Z,12.09
2022-09-06T05:30:18.106Z,12.11
2022-09-06T05:32:44.835Z,12.15
2022-09-06T05:35:11.474Z,12.13
2022-09-06T05:37:38.063Z,12.16
2022-09-06T05:40:05.226Z,12.26
2022-09-06T05:42:31.853Z,12.49
2022-09-06T05:44:58.403Z,12.75
2022-09-06T05:47:25.486Z,13.59
2022-09-06T05:49:52.208Z,14.53
2022-09-06T05:52:19.971Z,15.53
2022-09-06T05:54:47.058Z,15.67
2022-09-06T05:57:14.801Z,16.38
2022-09-06T05:59:41.327Z,15.81
2022-09-06T06:02:07.901Z,15.45
2022-09-06T06:04:35.044Z,15.62
2022-09-06T06:07:02.383Z,16.02
2022-09-06T06:09:29.018Z,16.39
2022-09-06T06:11:55.946Z,16.38
2022-09-06T06:14:23.209Z,16.73
2022-09-06T06:16:49.915Z,16.99
2022-09-06T06:19:17.419Z,16.73
2022-09-06T06:21:44.269Z,16.43
2022-09-06T06:24:11.134Z,15.40
2022-09-06T06:26:38.323Z,15.27
2022-09-06T06:29:08.241Z,14.75
2022-09-06T06:31:36.076Z,14.70
2022-09-06T06:34:04.278Z,14.44
2022-09-06T06:36:33.852Z,14.19
2022-09-06T06:39:02.406Z,14.38
2022-09-06T06:41:31.930Z,14.49
2022-09-06T06:44:00.808Z,14.46
2022-09-06T06:46:29.784Z,14.48
2022-09-06T06:48:56.652Z,14.58
2022-09-06T06:51:26.007Z,14.69
2022-09-06T06:53:53.084Z,14.61
2022-09-06T06:56:20.908Z,14.47
2022-09-06T06:58:49.362Z,14.48
2022-09-06T07:01:17.380Z,14.49
2022-09-06T07:03:44.895Z,14.47
2022-09-06T07:06:12.213Z,14.43
2022-09-06T07:08:40.096Z,14.43
2022-09-06T07:11:10.243Z,14.37
2022-09-06T07:13:38.612Z,14.20
2022-09-06T07:16:23.174Z,14.29
2022-09-06T07:18:54.652Z,14.16
2022-09-06T07:21:42.582Z,14.21
2022-09-06T07:24:09.822Z,14.24
2022-09-06T07:26:39.048Z,14.28
2022-09-06T07:29:07.834Z,14.31
2022-09-06T07:34:22.250Z,14.40
2022-09-06T07:36:52.833Z,14.69
2022-09-06T07:39:19.372Z,14.69
2022-09-06T07:41:45.988Z,14.73
2022-09-06T07:44:12.839Z,14.68
2022-09-06T07:46:39.663Z,14.72
2022-09-06T07:49:07.612Z,14.89
2022-09-06T07:51:34.241Z,15.06
2022-09-06T07:56:47.733Z,15.00
2022-09-06T07:59:14.370Z,15.19
2022-09-06T08:01:41.808Z,15.24
2022-09-06T08:04:10.552Z,15.40
2022-09-06T08:09:25.866Z,15.36
2022-09-06T08:11:53.231Z,15.32
2022-09-06T08:14:21.082Z,15.65
2022-09-06T08:16:47.699Z,15.58
2022-09-06T08:19:14.654Z,15.71
2022-09-06T08:21:41.451Z,15.62
2022-09-06T08:24:12.372Z,16.19
2022-09-06T08:26:45.632Z,16.66
2022-09-06T08:29:13.224Z,16.65
2022-09-06T08:31:42.629Z,16.62
2022-09-06T08:34:09.739Z,16.95
2022-09-06T08:36:36.269Z,16.80
2022-09-06T08:39:07.022Z,16.59
2022-09-06T08:41:45.541Z,16.41
2022-09-06T08:44:56.015Z,16.18
2022-09-06T08:47:23.870Z,16.47
2022-09-06T08:49:56.809Z,17.15
2022-09-06T08:52:29.945Z,17.87
2022-09-06T08:55:13.928Z,18.81
2022-09-06T08:58:25.453Z,19.99
2022-09-06T09:01:00.677Z,19.96
2022-09-06T09:03:33.600Z,21.09
2022-09-06T09:06:01.696Z,21.34
2022-09-06T09:08:32.771Z,20.65
2022-09-06T09:11:03.883Z,20.35
2022-09-06T09:13:33.703Z,20.75
2022-09-06T09:16:00.398Z,21.20
2022-09-06T09:18:34.468Z,22.38
2022-09-06T09:21:00.972Z,22.69
2022-09-06T09:23:31.069Z,23.19
2022-09-06T09:26:10.427Z,24.31
2022-09-06T09:28:37.218Z,24.63
2022-09-06T09:31:04.667Z,23.85
2022-09-06T09:33:38.821Z,23.71
2022-09-06T09:36:13.755Z,22.68
2022-09-06T09:38:46.142Z,22.29
2022-09-06T09:41:50.587Z,21.85
2022-09-06T09:44:19.045Z,21.43
2022-09-06T09:46:45.640Z,21.03
2022-09-06T09:49:15.483Z,20.69
2022-09-06T09:51:43.189Z,21.23
2022-09-06T09:54:12.700Z,21.49
2022-09-06T09:56:54.292Z,20.98
2022-09-06T09:59:25.826Z,21.11
2022-09-06T10:02:01.246Z,20.96
2022-09-06T10:07:14.986Z,21.09
2022-09-06T10:09:46.335Z,20.38
2022-09-06T10:12:19.007Z,20.34
2022-09-06T10:14:48.993Z,20.26
2022-09-06T10:17:30.742Z,20.12
2022-09-06T10:20:01.953Z,20.36
2022-09-06T10:22:34.863Z,20.37
2022-09-06T10:25:26.447Z,20.15
2022-09-06T10:28:17.615Z,19.92
2022-09-06T10:31:02.348Z,20.53
2022-09-06T10:33:56.490Z,20.89
2022-09-06T10:36:33.694Z,20.92
2022-09-06T10:39:21.442Z,20.25
2022-09-06T10:42:09.520Z,20.32
2022-09-06T10:44:53.991Z,19.91
2022-09-06T10:47:27.145Z,20.05
2022-09-06T10:49:58.035Z,19.92
2022-09-06T10:52:32.965Z,20.09
2022-09-06T10:55:04.631Z,20.04
2022-09-06T11:00:46.950Z,21.23
2022-09-06T11:06:29.709Z,20.60
2022-09-06T11:09:11.851Z,21.14
2022-09-06T11:11:48.934Z,21.35
2022-09-06T11:14:15.906Z,21.87
2022-09-06T11:16:57.678Z,21.62
2022-09-06T11:19:29.708Z,21.56
2022-09-06T11:22:02.274Z,21.52
2022-09-06T11:24:47.543Z,21.26
2022-09-06T11:27:27.274Z,21.43
2022-09-06T11:29:59.567Z,21.23
2022-09-06T11:32:39.085Z,21.54
2022-09-06T11:35:20.319Z,21.78
2022-09-06T11:37:51.365Z,21.93
2022-09-06T11:43:17.297Z,21.98
2022-09-06T11:45:52.923Z,21.69
2022-09-06T11:48:34.046Z,21.94
2022-09-06T11:51:06.748Z,21.98
2022-09-06T11:53:59.332Z,22.43
2022-09-06T11:56:40.999Z,22.89
2022-09-06T11:59:27.706Z,22.72
2022-09-06T12:02:33.675Z,22.56
2022-09-06T12:05:07.556Z,22.51
2022-09-06T12:07:36.379Z,22.54
2022-09-06T12:10:31.569Z,21.92
2022-09-06T12:12:58.827Z,21.97
2022-09-06T12:15:44.304Z,21.69
2022-09-06T12:18:49.059Z,21.84
2022-09-06T12:21:47.642Z,21.15
2022-09-06T12:24:35.771Z,20.96
2022-09-06T12:27:15.513Z,21.25
2022-09-06T12:29:59.523Z,21.12
2022-09-06T12:32:40.560Z,21.03
2022-09-06T12:38:16.096Z,21.66
2022-09-06T12:40:48.728Z,21.71
2022-09-06T12:43:17.439Z,21.90
2022-09-06T12:45:47.419Z,22.15
2022-09-06T12:48:35.462Z,22.46
2022-09-06T12:51:07.471Z,22.64
2022-09-06T12:53:35.037Z,22.70
2022-09-06T12:56:07.440Z,22.77
2022-09-06T12:58:34.792Z,22.89
2022-09-06T13:01:12.422Z,23.32
2022-09-06T13:03:51.211Z,23.48
2022-09-06T13:06:26.672Z,23.67
2022-09-06T13:08:56.977Z,23.11
2022-09-06T13:11:32.577Z,22.67
2022-09-06T13:13:59.388Z,22.32
2022-09-06T13:16:32.336Z,22.53
2022-09-06T13:19:16.488Z,21.98
2022-09-06T13:21:44.954Z,21.71
2022-09-06T13:24:24.027Z,21.65
2022-09-06T13:26:51.483Z,21.35
2022-09-06T13:29:17.941Z,21.31
2022-09-06T13:31:49.199Z,21.34
2022-09-06T13:34:31.130Z,21.12
2022-09-06T13:37:10.022Z,21.09
2022-09-06T13:39:40.089Z,21.10
2022-09-06T13:42:08.937Z,21.33
2022-09-06T13:44:37.878Z,21.58
2022-09-06T13:47:05.513Z,21.53
2022-09-06T13:49:34.156Z,21.52
2022-09-06T13:52:03.881Z,21.46
2022-09-06T13:54:35.665Z,21.40
2022-09-06T13:57:02.861Z,21.34
2022-09-06T13:59:30.520Z,21.43
2022-09-06T14:02:04.105Z,21.61
2022-09-06T14:04:31.885Z,21.57
2022-09-06T14:06:58.726Z,21.46
2022-09-06T14:09:25.317Z,21.37
2022-09-06T14:11:51.822Z,21.21
2022-09-06T14:14:18.750Z,21.26
2022-09-06T14:16:47.727Z,20.98
2022-09-06T14:19:15.420Z,21.05
2022-09-06T14:21:41.921Z,20.93
2022-09-06T14:24:08.419Z,21.00
2022-09-06T14:26:36.760Z,20.89
2022-09-06T14:29:04.116Z,20.86
2022-09-06T14:31:32.588Z,20.75
2022-09-06T14:33:59.814Z,20.71
2022-09-06T14:36:29.411Z,20.54
2022-09-06T14:38:58.503Z,20.44
2022-09-06T14:41:25.941Z,20.28
2022-09-06T14:43:56.016Z,20.44
2022-09-06T14:46:25.009Z,20.61
2022-09-06T14:49:06.146Z,20.48
2022-09-06T14:51:33.103Z,20.37
2022-09-06T14:54:04.666Z,20.39
2022-09-06T14:56:31.321Z,20.39
2022-09-06T14:58:59.965Z,20.36
2022-09-06T15:01:31.129Z,20.50
2022-09-06T15:04:05.966Z,20.60
2022-09-06T15:06:34.830Z,20.88
2022-09-06T15:09:01.754Z,20.91
2022-09-06T15:11:32.407Z,21.12
2022-09-06T15:13:59.058Z,21.10
2022-09-06T15:16:25.721Z,20.92
2022-09-06T15:18:56.568Z,20.86
2022-09-06T15:21:24.159Z,20.88
2022-09-06T15:23:52.314Z,20.89
2022-09-06T15:26:19.327Z,20.79
2022-09-06T15:28:45.975Z,20.90
2022-09-06T15:31:14.098Z,20.97
2022-09-06T15:33:41.371Z,20.69
2022-09-06T15:36:10.135Z,20.55
2022-09-06T15:38:42.650Z,20.45
2022-09-06T15:41:14.753Z,20.26
2022-09-06T15:43:46.885Z,20.15
2022-09-06T15:46:36.596Z,20.07
2022-09-06T15:49:06.838Z,20.02
2022-09-06T15:51:35.332Z,19.83
2022-09-06T15:54:01.859Z,19.81
2022-09-06T15:56:28.662Z,19.72
2022-09-06T15:58:55.379Z,19.68
2022-09-06T16:01:24.245Z,19.59
2022-09-06T16:03:53.891Z,19.43
2022-09-06T16:06:27.272Z,19.39
2022-09-06T16:09:10.498Z,19.32
2022-09-06T16:11:37.897Z,19.30
2022-09-06T16:14:06.374Z,19.23
2022-09-06T16:16:33.671Z,19.15
2022-09-06T16:19:00.894Z,19.09
2022-09-06T16:21:32.098Z,19.00
2022-09-06T16:24:04.829Z,18.93
2022-09-06T16:26:39.976Z,18.91
2022-09-06T16:29:08.365Z,18.80
2022-09-06T16:31:40.070Z,18.71
2022-09-06T16:34:08.390Z,18.65
2022-09-06T16:36:36.847Z,18.54
2022-09-06T16:39:04.138Z,18.44
2022-09-06T16:41:40.459Z,18.40
2022-09-06T16:44:08.739Z,18.32
2022-09-06T16:46:35.348Z,18.28
2022-09-06T16:49:03.034Z,18.26
2022-09-06T16:51:31.353Z,18.28
2022-09-06T16:53:59.259Z,18.22
2022-09-06T16:56:33.424Z,18.18
2022-09-06T16:59:02.890Z,18.14
2022-09-06T17:01:32.300Z,18.08
2022-09-06T17:04:02.219Z,18.01
2022-09-06T17:06:29.745Z,17.90
2022-09-06T17:11:50.996Z,17.74
2022-09-06T17:14:18.466Z,17.70
2022-09-06T17:17:03.709Z,17.67
2022-09-06T17:19:31.668Z,17.59
2022-09-06T17:21:58.379Z,17.49
2022-09-06T17:24:27.012Z,17.43
2022-09-06T17:26:54.039Z,17.40
2022-09-06T17:29:21.256Z,17.36
2022-09-06T17:31:49.571Z,17.33
2022-09-06T17:34:16.706Z,17.28
2022-09-06T17:36:43.549Z,17.19
2022-09-06T17:39:13.888Z,17.11
2022-09-06T17:41:45.642Z,17.07
2022-09-06T17:44:15.119Z,17.02
2022-09-06T17:46:57.050Z,17.03
2022-09-06T17:49:28.815Z,17.00
2022-09-06T17:51:55.286Z,16.91
2022-09-06T17:54:21.814Z,16.93
2022-09-06T17:56:48.276Z,16.95
2022-09-06T17:59:15.753Z,16.93
2022-09-06T18:01:46.379Z,16.84
2022-09-06T18:04:14.193Z,16.86
2022-09-06T18:06:43.353Z,16.79
2022-09-06T18:09:17.376Z,16.71
2022-09-06T18:11:46.081Z,16.66
2022-09-06T18:14:16.529Z,16.66
2022-09-06T18:16:47.223Z,16.72
2022-09-06T18:19:14.443Z,16.70
2022-09-06T18:21:41.396Z,16.62
2022-09-06T18:24:09.612Z,16.59
2022-09-06T18:26:37.405Z,16.59
2022-09-06T18:29:07.043Z,16.58
2022-09-06T18:31:33.828Z,16.58
2022-09-06T18:34:00.517Z,16.52
2022-09-06T18:36:31.930Z,16.50
2022-09-06T18:39:03.054Z,16.41
2022-09-06T18:41:48.975Z,16.44
2022-09-06T18:44:16.604Z,16.43
2022-09-06T18:46:43.618Z,16.45
2022-09-06T18:49:11.177Z,16.43
2022-09-06T18:51:40.074Z,16.39
2022-09-06T18:54:07.067Z,16.37
2022-09-06T18:56:33.858Z,16.29
2022-09-06T18:59:00.997Z,16.28
2022-09-06T19:01:30.411Z,16.20
2022-09-06T19:03:58.542Z,16.17
2022-09-06T19:06:26.194Z,16.18
2022-09-06T19:08:53.867Z,16.23
2022-09-06T19:11:21.929Z,16.20
2022-09-06T19:13:52.604Z,16.15
2022-09-06T19:16:20.193Z,16.19
2022-09-06T19:18:46.912Z,16.21
2022-09-06T19:21:17.380Z,16.22
2022-09-06T19:23:46.652Z,16.24
2022-09-06T19:26:20.110Z,16.27
2022-09-06T19:28:52.126Z,16.27
2022-09-06T19:31:21.556Z,16.26
2022-09-06T19:33:49.761Z,16.25
2022-09-06T19:36:18.239Z,16.21
2022-09-06T19:41:36.920Z,16.15
2022-09-06T19:44:06.033Z,16.14
2022-09-06T19:46:33.150Z,16.06
2022-09-06T19:49:00.569Z,15.98
2022-09-06T19:51:27.217Z,15.87
2022-09-06T19:53:59.879Z,15.76
2022-09-06T19:56:30.116Z,15.69
2022-09-06T19:58:58.910Z,15.60
2022-09-06T20:01:29.407Z,15.55
2022-09-06T20:03:58.356Z,15.53
2022-09-06T20:06:26.767Z,15.47
2022-09-06T20:08:55.447Z,15.41
2022-09-06T20:11:25.864Z,15.33
2022-09-06T20:13:52.759Z,15.25
2022-09-06T20:16:21.197Z,15.19
2022-09-06T20:18:48.982Z,15.18
2022-09-06T20:21:18.282Z,15.10
2022-09-06T20:23:49.925Z,15.07
2022-09-06T20:26:18.031Z,15.02
2022-09-06T20:28:45.230Z,14.89
2022-09-06T20:31:16.568Z,14.89
2022-09-06T20:33:48.743Z,14.76
2022-09-06T20:36:16.354Z,14.70
2022-09-06T20:38:44.232Z,14.64
2022-09-06T20:41:13.933Z,14.62
2022-09-06T20:43:44.829Z,14.56
2022-09-06T20:46:17.694Z,14.60
2022-09-06T20:48:46.012Z,14.53
2022-09-06T20:51:19.049Z,14.47
2022-09-06T20:53:48.273Z,14.38
2022-09-06T20:56:18.179Z,14.32
2022-09-06T20:58:52.893Z,14.27
2022-09-06T21:01:25.250Z,14.21
2022-09-06T21:03:54.192Z,14.17
2022-09-06T21:06:21.518Z,14.11
2022-09-06T21:08:48.857Z,14.11
2022-09-06T21:11:15.763Z,14.14
2022-09-06T21:13:42.662Z,14.06
2022-09-06T21:16:09.800Z,13.99
2022-09-06T21:18:36.733Z,13.86
2022-09-06T21:21:06.342Z,13.84
2022-09-06T21:23:36.075Z,13.78
2022-09-06T21:26:05.273Z,13.76
2022-09-06T21:28:34.655Z,13.73
2022-09-06T21:31:31.777Z,13.83
2022-09-06T21:34:06.837Z,13.75
2022-09-06T21:36:38.243Z,13.66
2022-09-06T21:39:09.543Z,13.55
2022-09-06T21:41:38.223Z,13.45
2022-09-06T21:44:07.252Z,13.39
2022-09-06T21:46:35.802Z,13.33
2022-09-06T21:49:08.597Z,13.29
2022-09-06T21:51:35.670Z,13.28
2022-09-06T21:54:06.201Z,13.20
2022-09-06T21:56:34.362Z,13.16
2022-09-06T21:59:01.376Z,13.14
2022-09-06T22:01:31.703Z,13.04
2022-09-06T22:03:59.081Z,12.94
2022-09-06T22:06:29.009Z,12.88
2022-09-06T22:08:57.681Z,12.89
2022-09-06T22:11:27.090Z,12.88
2022-09-06T22:14:00.006Z,12.89
2022-09-06T22:16:27.963Z,12.87
2022-09-06T22:18:54.942Z,12.96
2022-09-06T22:21:22.146Z,12.99
2022-09-06T22:23:57.264Z,13.00
2022-09-06T22:26:25.995Z,13.06
2022-09-06T22:28:54.878Z,13.00
2022-09-06T22:31:22.367Z,12.93
2022-09-06T22:33:49.688Z,12.89
2022-09-06T22:36:17.084Z,12.83
2022-09-06T22:38:43.757Z,12.88
2022-09-06T22:41:10.679Z,12.90
2022-09-06T22:43:37.610Z,12.90
2022-09-06T22:46:09.502Z,12.95
2022-09-06T22:48:36.861Z,13.00
2022-09-06T22:51:06.074Z,12.99
2022-09-06T22:53:33.686Z,13.04
2022-09-06T22:56:01.575Z,13.04
2022-09-06T22:58:28.432Z,13.02
2022-09-06T23:00:55.571Z,13.00
2022-09-06T23:03:22.670Z,12.90
2022-09-06T23:05:49.352Z,12.87
2022-09-06T23:08:16.131Z,12.81
2022-09-06T23:10:44.380Z,12.78
2022-09-06T23:13:11.343Z,12.74
2022-09-06T23:15:40.811Z,12.68
2022-09-06T23:18:08.426Z,12.67
2022-09-06T23:20:37.073Z,12.59
2022-09-06T23:23:04.560Z,12.55
2022-09-06T23:25:31.240Z,12.48
2022-09-06T23:27:59.505Z,12.45
2022-09-06T23:30:26.180Z,12.39
2022-09-06T23:32:52.744Z,12.38
2022-09-06T23:35:19.274Z,12.35
2022-09-06T23:37:45.838Z,12.25
2022-09-06T23:40:12.676Z,12.22
2022-09-06T23:42:39.373Z,12.19
2022-09-06T23:45:06.452Z,12.18
2022-09-06T23:47:33.006Z,12.17
2022-09-06T23:49:59.619Z,12.12
2022-09-06T23:52:26.351Z,12.06
2022-09-06T23:54:52.914Z,12.00
2022-09-06T23:57:21.112Z,12.05
2022-09-06T23:59:47.585Z,12.06
